CheckWX is a tool to help pilots better visualize weather data.  It is not intended as a substitute for an official pre-flight weather briefing.

21:29:49 UTC

SCJO METAR
Cañal Bajo Carlos - Hott Siebert Airport
Osorno, Chile
Current

28 mins ago

SCJO 132102Z AUTO VRB01KT 2700 BR OVC002/// 03/03 Q1025
Observed
Jul-13 @ 21:02 UTC
Wind
  • Variable at 1 KTS
Visibility
2704 meters
Flight Rules
LIFR
Conditions
Mist
Cloud Levels
  • Overcast at 200' AGL
Temperature
C / 37°F
Dewpoint
C / 37°F
Humidity
100%
Altimeter
30.27" Hg
Pressure
1024.92 hPa
Previous

39 mins ago

SCJO 132051Z AUTO 31004KT 280V340 3900 BR OVC002/// 03/03 Q1026
Observed
Jul-13 @ 20:51 UTC
Wind
  • 310° at 4 KTS
Visibility
3895 meters
Flight Rules
LIFR
Conditions
Mist
Cloud Levels
  • Overcast at 200' AGL
Temperature
C / 37°F
Dewpoint
C / 37°F
Humidity
100%
Altimeter
30.3" Hg
Pressure
1025.92 hPa
Previous

1 hour ago

SCJO 132000Z AUTO 00000KT 9000 OVC002/// 03/03 Q1026
Observed
Jul-13 @ 20:00 UTC
Visibility
8996 meters
Flight Rules
LIFR
Cloud Levels
  • Overcast at 200' AGL
Temperature
C / 37°F
Dewpoint
C / 37°F
Humidity
100%
Altimeter
30.3" Hg
Pressure
1025.92 hPa